Wetterdaten: Woche 29.04.13 - 05.05.13 (KW18)
Datum Zeit Temp. Aussen +5cm Feuchte Auss Luftdruck Regen Sonnenschein Regendauer UV Solar Windben
29.04.2013 00:00 7,7 C 6,1 C 83 % 1014,9 hPa 0,0 l/m 0,00 h 0,00 h 0,0 UV-I 0 W/m 1,7 km/h (1 Bft)
29.04.2013 01:00 7,1 C 5,7 C 85 % 1014,7 hPa 0,0 l/m 0,00 h 0,00 h 0,0 UV-I 0 W/m 2,7 km/h (1 Bft)
29.04.2013 02:00 7,1 C 6,1 C 87 % 1014,6 hPa 0,0 l/m 0,00 h 0,00 h 0,0 UV-I 0 W/m 3,9 km/h (1 Bft)
29.04.2013 03:00 7,3 C 6,1 C 86 % 1014,3 hPa 0,0 l/m 0,00 h 0,00 h 0,0 UV-I 0 W/m 5,7 km/h (1 Bft)
29.04.2013 04:00 6,9 C 5,4 C 87 % 1014,0 hPa 0,0 l/m 0,00 h 0,00 h 0,0 UV-I 0 W/m 5,1 km/h (1 Bft)
29.04.2013 05:00 6,4 C 4,8 C 88 % 1014,0 hPa 0,0 l/m 0,00 h 0,00 h 0,0 UV-I 0 W/m 3,7 km/h (1 Bft)
29.04.2013 06:00 6,0 C 4,6 C 89 % 1014,2 hPa 0,0 l/m 0,00 h 0,00 h 0,0 UV-I 12 W/m 4,8 km/h (1 Bft)
29.04.2013 07:00 5,7 C 4,7 C 88 % 1014,4 hPa 0,0 l/m 0,00 h 0,00 h 0,0 UV-I 27 W/m 3,7 km/h (1 Bft)
29.04.2013 08:00 6,9 C 6,1 C 74 % 1014,5 hPa 0,0 l/m 0,00 h 0,00 h 0,0 UV-I 38 W/m 8,2 km/h (2 Bft)
29.04.2013 09:00 9,7 C 9,8 C 62 % 1015,0 hPa 0,0 l/m 0,07 h 0,00 h 0,6 UV-I 139 W/m 14,6 km/h (3 Bft)
29.04.2013 10:00 10,5 C 10,7 C 56 % 1015,3 hPa 0,0 l/m 0,03 h 0,00 h 0,6 UV-I 257 W/m 18,5 km/h (3 Bft)
29.04.2013 11:00 11,1 C 11,2 C 54 % 1015,8 hPa 0,0 l/m 0,00 h 0,00 h 0,5 UV-I 237 W/m 18,4 km/h (3 Bft)
29.04.2013 12:00 11,7 C 12,3 C 56 % 1016,4 hPa 0,0 l/m 0,10 h 0,00 h 1,3 UV-I 316 W/m 20,8 km/h (4 Bft)
29.04.2013 13:00 12,8 C 13,7 C 56 % 1016,5 hPa 0,0 l/m 0,13 h 0,03 h 1,6 UV-I 369 W/m 16,8 km/h (3 Bft)
29.04.2013 14:00 13,8 C 14,8 C 57 % 1016,9 hPa 0,0 l/m 0,23 h 0,00 h 1,7 UV-I 412 W/m 16,1 km/h (3 Bft)
29.04.2013 15:00 14,5 C 15,2 C 58 % 1017,3 hPa 0,0 l/m 0,40 h 0,00 h 1,2 UV-I 343 W/m 14,2 km/h (3 Bft)
29.04.2013 16:00 14,0 C 13,5 C 60 % 1017,6 hPa 0,0 l/m 0,00 h 0,00 h 0,6 UV-I 190 W/m 15,1 km/h (3 Bft)
29.04.2013 17:00 12,0 C 11,6 C 70 % 1018,2 hPa 0,0 l/m 0,00 h 0,00 h 0,0 UV-I 143 W/m 11,7 km/h (2 Bft)
29.04.2013 18:00 11,9 C 11,5 C 68 % 1018,5 hPa 0,0 l/m 0,00 h 0,00 h 0,0 UV-I 105 W/m 6,0 km/h (2 Bft)
29.04.2013 19:00 12,0 C 10,9 C 64 % 1018,6 hPa 0,0 l/m 0,00 h 0,00 h 0,0 UV-I 62 W/m 5,4 km/h (1 Bft)
29.04.2013 20:00 11,2 C 8,6 C 65 % 1019,1 hPa 0,0 l/m 0,10 h 0,00 h 0,0 UV-I 19 W/m 0,5 km/h (0 Bft)
29.04.2013 21:00 9,7 C 5,9 C 70 % 1019,9 hPa 0,0 l/m 0,00 h 0,00 h 0,0 UV-I 0 W/m 0,0 km/h (0 Bft)
29.04.2013 22:00 7,8 C 5,0 C 77 % 1020,4 hPa 0,0 l/m 0,00 h 0,00 h 0,0 UV-I 0 W/m 0,0 km/h (0 Bft)
29.04.2013 23:00 6,6 C 4,1 C 79 % 1020,7 hPa 0,0 l/m 0,00 h 0,00 h 0,0 UV-I 0 W/m 0,0 km/h (0 Bft)
30.04.2013 00:00 5,6 C 3,6 C 83 % 1020,8 hPa 0,0 l/m 0,00 h 0,00 h 0,0 UV-I 0 W/m 0,0 km/h (0 Bft)
30.04.2013 01:00 5,0 C 3,3 C 86 % 1020,9 hPa 0,0 l/m 0,00 h 0,00 h 0,0 UV-I 0 W/m 0,0 km/h (0 Bft)
30.04.2013 02:00 4,5 C 2,9 C 89 % 1021,0 hPa 0,0 l/m 0,00 h 0,00 h 0,0 UV-I 0 W/m 0,0 km/h (0 Bft)
30.04.2013 03:00 4,0 C 2,4 C 90 % 1021,0 hPa 0,0 l/m 0,00 h 0,00 h 0,0 UV-I 0 W/m 0,0 km/h (0 Bft)
30.04.2013 04:00 3,4 C 1,5 C 91 % 1021,2 hPa 0,0 l/m 0,00 h 0,00 h 0,0 UV-I 0 W/m 0,0 km/h (0 Bft)
30.04.2013 05:00 2,7 C 1,2 C 92 % 1021,2 hPa 0,0 l/m 0,00 h 0,00 h 0,0 UV-I 0 W/m 0,0 km/h (0 Bft)
30.04.2013 06:00 2,3 C 0,9 C 93 % 1021,3 hPa 0,0 l/m 0,00 h 0,00 h 0,0 UV-I 15 W/m 0,0 km/h (0 Bft)
30.04.2013 07:00 2,6 C 3,1 C 95 % 1021,8 hPa 0,0 l/m 0,00 h 0,00 h 0,0 UV-I 62 W/m 0,0 km/h (0 Bft)
30.04.2013 08:00 4,9 C 6,8 C 98 % 1022,0 hPa 0,0 l/m 0,00 h 0,00 h 0,0 UV-I 126 W/m 0,2 km/h (0 Bft)
30.04.2013 09:00 8,0 C 9,5 C 84 % 1022,3 hPa 0,0 l/m 0,00 h 0,00 h 0,5 UV-I 161 W/m 0,6 km/h (0 Bft)
30.04.2013 10:00 10,8 C 12,7 C 67 % 1022,4 hPa 0,0 l/m 0,00 h 0,00 h 0,8 UV-I 267 W/m 3,7 km/h (1 Bft)
30.04.2013 11:00 12,6 C 15,1 C 61 % 1022,4 hPa 0,0 l/m 0,60 h 0,00 h 1,9 UV-I 459 W/m 3,1 km/h (1 Bft)
30.04.2013 12:00 14,2 C 17,0 C 55 % 1022,1 hPa 0,0 l/m 0,90 h 0,00 h 2,4 UV-I 523 W/m 8,9 km/h (2 Bft)
30.04.2013 13:00 14,5 C 15,8 C 52 % 1021,9 hPa 0,0 l/m 0,73 h 0,00 h 2,6 UV-I 523 W/m 15,0 km/h (3 Bft)
30.04.2013 14:00 14,9 C 15,2 C 50 % 1021,9 hPa 0,0 l/m 0,27 h 0,00 h 1,9 UV-I 407 W/m 16,0 km/h (3 Bft)
30.04.2013 15:00 14,9 C 15,2 C 52 % 1021,8 hPa 0,0 l/m 0,43 h 0,00 h 1,6 UV-I 435 W/m 15,2 km/h (3 Bft)
30.04.2013 16:00 15,4 C 15,7 C 50 % 1021,6 hPa 0,0 l/m 0,50 h 0,00 h 1,1 UV-I 408 W/m 14,8 km/h (3 Bft)
30.04.2013 17:00 15,7 C 15,1 C 47 % 1021,4 hPa 0,0 l/m 0,00 h 0,00 h 0,0 UV-I 175 W/m 9,7 km/h (2 Bft)
30.04.2013 18:00 14,8 C 13,7 C 49 % 1021,4 hPa 0,0 l/m 0,00 h 0,00 h 0,0 UV-I 83 W/m 7,7 km/h (2 Bft)
30.04.2013 19:00 14,1 C 12,7 C 51 % 1021,7 hPa 0,0 l/m 0,00 h 0,00 h 0,0 UV-I 46 W/m 4,3 km/h (1 Bft)
30.04.2013 20:00 13,5 C 11,7 C 53 % 1022,1 hPa 0,0 l/m 0,00 h 0,00 h 0,0 UV-I 13 W/m 4,4 km/h (1 Bft)
30.04.2013 21:00 12,6 C 10,2 C 56 % 1022,5 hPa 0,0 l/m 0,00 h 0,00 h 0,0 UV-I 5 W/m 0,7 km/h (0 Bft)
30.04.2013 22:00 11,6 C 9,9 C 63 % 1022,8 hPa 0,0 l/m 0,00 h 0,00 h 0,0 UV-I 0 W/m 10,0 km/h (2 Bft)
30.04.2013 23:00 10,9 C 9,6 C 67 % 1023,0 hPa 0,0 l/m 0,00 h 0,00 h 0,0 UV-I 0 W/m 12,4 km/h (3 Bft)
01.05.2013 00:00 10,6 C 9,4 C 70 % 1023,2 hPa 0,0 l/m 0,00 h 0,00 h 0,0 UV-I 0 W/m 6,4 km/h (2 Bft)
01.05.2013 01:00 10,3 C 9,0 C 72 % 1023,4 hPa 0,0 l/m 0,00 h 0,00 h 0,0 UV-I 0 W/m 6,4 km/h (2 Bft)
01.05.2013 02:00 9,9 C 8,6 C 72 % 1023,4 hPa 0,0 l/m 0,00 h 0,00 h 0,0 UV-I 0 W/m 3,5 km/h (1 Bft)
01.05.2013 03:00 9,2 C 7,9 C 73 % 1023,3 hPa 0,0 l/m 0,00 h 0,00 h 0,0 UV-I 0 W/m 4,3 km/h (1 Bft)
01.05.2013 04:00 8,6 C 7,3 C 75 % 1023,4 hPa 0,0 l/m 0,00 h 0,00 h 0,0 UV-I 0 W/m 3,7 km/h (1 Bft)
01.05.2013 05:00 8,2 C 7,0 C 78 % 1023,4 hPa 0,0 l/m 0,00 h 0,00 h 0,0 UV-I 0 W/m 2,7 km/h (1 Bft)
01.05.2013 06:00 7,5 C 6,2 C 81 % 1023,3 hPa 0,0 l/m 0,00 h 0,00 h 0,0 UV-I 20 W/m 2,1 km/h (1 Bft)
01.05.2013 07:00 7,5 C 6,7 C 82 % 1023,2 hPa 0,0 l/m 0,00 h 0,00 h 0,0 UV-I 61 W/m 5,1 km/h (1 Bft)
01.05.2013 08:00 8,6 C 8,1 C 79 % 1023,0 hPa 0,0 l/m 0,00 h 0,00 h 0,0 UV-I 78 W/m 7,5 km/h (2 Bft)
01.05.2013 09:00 10,8 C 12,7 C 72 % 1022,9 hPa 0,0 l/m 0,13 h 0,00 h 0,8 UV-I 155 W/m 9,8 km/h (2 Bft)
01.05.2013 10:00 13,3 C 20,3 C 65 % 1022,6 hPa 0,0 l/m 0,77 h 0,00 h 1,8 UV-I 431 W/m 10,3 km/h (2 Bft)
01.05.2013 11:00 15,4 C 19,6 C 61 % 1022,1 hPa 0,0 l/m 0,57 h 0,00 h 2,9 UV-I 447 W/m 10,4 km/h (2 Bft)
01.05.2013 12:00 16,2 C 21,4 C 60 % 1021,6 hPa 0,0 l/m 1,00 h 0,00 h 2,3 UV-I 777 W/m 0,0 km/h (0 Bft)
01.05.2013 13:00 16,2 C 19,5 C 60 % 1020,8 hPa 0,0 l/m 1,00 h 0,00 h 2,6 UV-I 787 W/m 5,4 km/h (1 Bft)
01.05.2013 14:00 16,2 C 18,6 C 60 % 1020,0 hPa 0,0 l/m 0,80 h 0,00 h 2,8 UV-I 671 W/m 11,2 km/h (2 Bft)
01.05.2013 15:00 16,4 C 20,1 C 60 % 1019,3 hPa 0,0 l/m 0,63 h 0,00 h 2,5 UV-I 624 W/m 11,7 km/h (2 Bft)
01.05.2013 16:00 19,4 C 20,2 C 55 % 1018,9 hPa 0,0 l/m 0,38 h 0,00 h 1,5 UV-I 417 W/m 10,2 km/h (2 Bft)
01.05.2013 17:00 18,8 C 18,0 C 56 % 1018,7 hPa 0,0 l/m 0,03 h 0,00 h 0,7 UV-I 196 W/m 6,7 km/h (2 Bft)
01.05.2013 18:00 18,3 C 17,0 C 57 % 1018,7 hPa 0,0 l/m 0,00 h 0,00 h 0,0 UV-I 107 W/m 5,1 km/h (1 Bft)
01.05.2013 19:00 17,7 C 16,4 C 59 % 1018,3 hPa 0,0 l/m 0,00 h 0,00 h 0,0 UV-I 79 W/m 2,4 km/h (1 Bft)
01.05.2013 20:00 16,5 C 15,1 C 61 % 1018,7 hPa 0,0 l/m 0,00 h 0,00 h 0,0 UV-I 18 W/m 2,3 km/h (1 Bft)
01.05.2013 21:00 16,0 C 14,1 C 63 % 1018,9 hPa 0,0 l/m 0,00 h 0,00 h 0,0 UV-I 0 W/m 0,3 km/h (0 Bft)
01.05.2013 22:00 15,2 C 13,4 C 65 % 1019,3 hPa 0,0 l/m 0,00 h 0,00 h 0,0 UV-I 0 W/m 0,8 km/h (0 Bft)
01.05.2013 23:00 14,7 C 13,2 C 66 % 1019,2 hPa 0,0 l/m 0,00 h 0,00 h 0,0 UV-I 0 W/m 0,8 km/h (0 Bft)
02.05.2013 00:00 14,0 C 12,6 C 69 % 1019,2 hPa 0,0 l/m 0,00 h 0,00 h 0,0 UV-I 0 W/m 1,6 km/h (1 Bft)
02.05.2013 01:00 13,3 C 10,8 C 75 % 1018,5 hPa 0,0 l/m 0,00 h 0,67 h 0,0 UV-I 0 W/m 2,8 km/h (1 Bft)
02.05.2013 02:00 12,3 C 9,7 C 80 % 1018,8 hPa 0,0 l/m 0,00 h 0,00 h 0,0 UV-I 0 W/m 0,3 km/h (0 Bft)
02.05.2013 03:00 11,8 C 10,6 C 82 % 1018,7 hPa 0,0 l/m 0,00 h 0,00 h 0,0 UV-I 0 W/m 0,1 km/h (0 Bft)
02.05.2013 04:00 11,8 C 10,7 C 82 % 1018,4 hPa 0,0 l/m 0,00 h 0,00 h 0,0 UV-I 0 W/m 0,6 km/h (0 Bft)
02.05.2013 05:00 11,7 C 10,6 C 81 % 1018,3 hPa 0,0 l/m 0,00 h 0,13 h 0,0 UV-I 0 W/m 0,2 km/h (0 Bft)
02.05.2013 06:00 11,4 C 9,5 C 84 % 1018,4 hPa 0,0 l/m 0,00 h 0,10 h 0,0 UV-I 14 W/m 0,0 km/h (0 Bft)
02.05.2013 07:00 11,5 C 10,8 C 84 % 1018,7 hPa 0,0 l/m 0,00 h 0,00 h 0,0 UV-I 45 W/m 1,2 km/h (1 Bft)
02.05.2013 08:00 12,1 C 11,7 C 82 % 1018,9 hPa 0,0 l/m 0,00 h 0,00 h 0,0 UV-I 80 W/m 2,1 km/h (1 Bft)
02.05.2013 09:00 13,0 C 12,9 C 80 % 1019,2 hPa 0,0 l/m 0,00 h 0,00 h 0,0 UV-I 153 W/m 3,6 km/h (1 Bft)
02.05.2013 10:00 14,3 C 14,5 C 75 % 1019,3 hPa 0,0 l/m 0,00 h 0,00 h 0,5 UV-I 199 W/m 6,8 km/h (2 Bft)
02.05.2013 11:00 16,5 C 19,2 C 68 % 1019,1 hPa 0,0 l/m 0,77 h 0,00 h 1,9 UV-I 566 W/m 9,9 km/h (2 Bft)
02.05.2013 12:00 17,5 C 19,7 C 63 % 1019,0 hPa 0,0 l/m 0,33 h 0,00 h 1,6 UV-I 435 W/m 11,7 km/h (2 Bft)
02.05.2013 13:00 18,0 C 19,2 C 61 % 1018,8 hPa 0,0 l/m 0,07 h 0,00 h 1,6 UV-I 390 W/m 8,2 km/h (2 Bft)
02.05.2013 14:00 19,8 C 21,0 C 57 % 1018,5 hPa 0,0 l/m 1,00 h 0,00 h 3,2 UV-I 804 W/m 12,0 km/h (2 Bft)
02.05.2013 15:00 20,0 C 20,7 C 56 % 1018,1 hPa 0,0 l/m 0,60 h 0,00 h 1,9 UV-I 515 W/m 9,3 km/h (2 Bft)
02.05.2013 16:00 19,6 C 20,1 C 57 % 1017,6 hPa 0,0 l/m 0,40 h 0,00 h 1,0 UV-I 393 W/m 13,6 km/h (3 Bft)
02.05.2013 17:00 19,2 C 19,0 C 58 % 1017,2 hPa 0,0 l/m 0,37 h 0,00 h 0,6 UV-I 282 W/m 11,2 km/h (2 Bft)
02.05.2013 18:00 19,1 C 18,4 C 58 % 1017,3 hPa 0,0 l/m 0,03 h 0,00 h 0,0 UV-I 150 W/m 9,4 km/h (2 Bft)
02.05.2013 19:00 18,0 C 16,8 C 59 % 1017,2 hPa 0,0 l/m 0,00 h 0,00 h 0,0 UV-I 61 W/m 8,5 km/h (2 Bft)
02.05.2013 20:00 17,1 C 15,5 C 61 % 1017,5 hPa 0,0 l/m 0,00 h 0,00 h 0,0 UV-I 13 W/m 5,7 km/h (1 Bft)
02.05.2013 21:00 16,3 C 14,6 C 64 % 1017,9 hPa 0,0 l/m 0,00 h 0,00 h 0,0 UV-I 0 W/m 6,9 km/h (2 Bft)
02.05.2013 22:00 15,1 C 13,2 C 68 % 1018,1 hPa 0,0 l/m 0,00 h 0,00 h 0,0 UV-I 0 W/m 6,7 km/h (2 Bft)
02.05.2013 23:00 14,2 C 12,7 C 71 % 1018,2 hPa 0,0 l/m 0,00 h 0,00 h 0,0 UV-I 0 W/m 0,7 km/h (0 Bft)
03.05.2013 00:00 13,3 C 11,8 C 74 % 1018,1 hPa 0,0 l/m 0,00 h 0,00 h 0,0 UV-I 0 W/m 0,9 km/h (0 Bft)
03.05.2013 01:00 12,4 C 10,8 C 78 % 1018,0 hPa 0,0 l/m 0,00 h 0,00 h 0,0 UV-I 0 W/m 1,0 km/h (0 Bft)
03.05.2013 02:00 11,6 C 9,9 C 82 % 1017,7 hPa 0,0 l/m 0,00 h 0,00 h 0,0 UV-I 0 W/m 1,0 km/h (0 Bft)
03.05.2013 03:00 10,6 C 8,9 C 85 % 1017,4 hPa 0,0 l/m 0,00 h 0,00 h 0,0 UV-I 0 W/m 0,3 km/h (0 Bft)
03.05.2013 04:00 9,7 C 8,0 C 88 % 1017,1 hPa 0,0 l/m 0,00 h 0,00 h 0,0 UV-I 0 W/m 0,0 km/h (0 Bft)
03.05.2013 05:00 8,9 C 6,7 C 90 % 1017,0 hPa 0,0 l/m 0,00 h 0,00 h 0,0 UV-I 0 W/m 0,0 km/h (0 Bft)
03.05.2013 06:00 8,0 C 6,4 C 91 % 1017,1 hPa 0,0 l/m 0,00 h 0,00 h 0,0 UV-I 18 W/m 0,0 km/h (0 Bft)
03.05.2013 07:00 8,1 C 8,0 C 93 % 1017,2 hPa 0,0 l/m 0,00 h 0,00 h 0,0 UV-I 81 W/m 0,0 km/h (0 Bft)
03.05.2013 08:00 9,9 C 10,6 C 94 % 1017,3 hPa 0,0 l/m 0,43 h 0,00 h 0,0 UV-I 198 W/m 0,9 km/h (0 Bft)
03.05.2013 09:00 12,5 C 14,1 C 85 % 1017,2 hPa 0,0 l/m 1,00 h 0,00 h 0,6 UV-I 347 W/m 1,2 km/h (1 Bft)
03.05.2013 10:00 14,9 C 17,6 C 75 % 1017,3 hPa 0,0 l/m 0,70 h 0,00 h 0,9 UV-I 426 W/m 6,6 km/h (2 Bft)
03.05.2013 11:00 15,6 C 17,5 C 71 % 1017,0 hPa 0,0 l/m 0,40 h 0,00 h 1,3 UV-I 427 W/m 7,6 km/h (2 Bft)
03.05.2013 12:00 16,2 C 18,1 C 69 % 1016,7 hPa 0,0 l/m 0,13 h 0,00 h 1,6 UV-I 396 W/m 6,9 km/h (2 Bft)
03.05.2013 13:00 17,9 C 21,3 C 62 % 1016,2 hPa 0,0 l/m 0,70 h 0,00 h 1,9 UV-I 661 W/m 10,5 km/h (2 Bft)
03.05.2013 14:00 18,6 C 19,6 C 59 % 1016,1 hPa 0,0 l/m 0,60 h 0,00 h 2,1 UV-I 582 W/m 10,4 km/h (2 Bft)
03.05.2013 15:00 19,0 C 19,7 C 57 % 1015,8 hPa 0,0 l/m 0,80 h 0,00 h 1,9 UV-I 603 W/m 12,3 km/h (3 Bft)
03.05.2013 16:00 19,0 C 19,6 C 55 % 1015,6 hPa 0,0 l/m 0,50 h 0,00 h 1,3 UV-I 384 W/m 12,6 km/h (3 Bft)
03.05.2013 17:00 18,9 C 18,6 C 54 % 1015,3 hPa 0,0 l/m 0,37 h 0,00 h 0,6 UV-I 279 W/m 12,6 km/h (3 Bft)
03.05.2013 18:00 18,7 C 17,5 C 55 % 1015,1 hPa 0,0 l/m 0,17 h 0,00 h 0,0 UV-I 164 W/m 9,1 km/h (2 Bft)
03.05.2013 19:00 18,3 C 17,2 C 56 % 1015,0 hPa 0,0 l/m 0,00 h 0,00 h 0,0 UV-I 81 W/m 6,5 km/h (2 Bft)
03.05.2013 20:00 17,2 C 15,7 C 62 % 1015,3 hPa 0,0 l/m 0,20 h 0,00 h 0,0 UV-I 31 W/m 5,3 km/h (1 Bft)
03.05.2013 21:00 16,0 C 12,5 C 66 % 1015,7 hPa 0,0 l/m 0,00 h 0,00 h 0,0 UV-I 6 W/m 0,0 km/h (0 Bft)
03.05.2013 22:00 14,2 C 10,9 C 72 % 1016,0 hPa 0,0 l/m 0,00 h 0,00 h 0,0 UV-I 0 W/m 0,0 km/h (0 Bft)
03.05.2013 23:00 13,0 C 10,2 C 76 % 1015,9 hPa 0,0 l/m 0,00 h 0,00 h 0,0 UV-I 0 W/m 0,2 km/h (0 Bft)
04.05.2013 00:00 12,2 C 9,9 C 76 % 1016,0 hPa 0,0 l/m 0,00 h 0,00 h 0,0 UV-I 0 W/m 0,4 km/h (0 Bft)
04.05.2013 01:00 11,2 C 8,3 C 78 % 1015,7 hPa 0,0 l/m 0,00 h 0,00 h 0,0 UV-I 0 W/m 0,0 km/h (0 Bft)
04.05.2013 02:00 10,0 C 7,2 C 81 % 1015,6 hPa 0,0 l/m 0,00 h 0,00 h 0,0 UV-I 0 W/m 0,0 km/h (0 Bft)
04.05.2013 03:00 8,9 C 6,6 C 82 % 1015,3 hPa 0,0 l/m 0,00 h 0,00 h 0,0 UV-I 0 W/m 0,0 km/h (0 Bft)
04.05.2013 04:00 8,1 C 6,6 C 87 % 1015,6 hPa 0,0 l/m 0,00 h 0,00 h 0,0 UV-I 0 W/m 0,2 km/h (0 Bft)
04.05.2013 05:00 7,8 C 6,3 C 88 % 1015,9 hPa 0,0 l/m 0,00 h 0,00 h 0,0 UV-I 0 W/m 0,1 km/h (0 Bft)
04.05.2013 06:00 7,4 C 6,1 C 90 % 1016,3 hPa 0,0 l/m 0,00 h 0,00 h 0,0 UV-I 18 W/m 0,2 km/h (0 Bft)
04.05.2013 07:00 7,5 C 7,1 C 90 % 1016,7 hPa 0,0 l/m 0,00 h 0,00 h 0,0 UV-I 69 W/m 0,3 km/h (0 Bft)
04.05.2013 08:00 9,4 C 9,5 C 85 % 1017,1 hPa 0,0 l/m 0,70 h 0,00 h 0,0 UV-I 234 W/m 5,0 km/h (1 Bft)
04.05.2013 09:00 12,5 C 14,3 C 75 % 1017,4 hPa 0,0 l/m 1,00 h 0,00 h 0,7 UV-I 414 W/m 6,7 km/h (2 Bft)
04.05.2013 10:00 15,3 C 21,3 C 65 % 1017,6 hPa 0,0 l/m 1,00 h 0,00 h 1,6 UV-I 571 W/m 8,2 km/h (2 Bft)
04.05.2013 11:00 17,2 C 21,9 C 61 % 1017,7 hPa 0,0 l/m 1,00 h 0,00 h 2,6 UV-I 691 W/m 9,9 km/h (2 Bft)
04.05.2013 12:00 17,8 C 24,5 C 58 % 1017,6 hPa 0,0 l/m 1,00 h 0,00 h 3,0 UV-I 762 W/m 11,8 km/h (2 Bft)
04.05.2013 13:00 18,8 C 24,2 C 55 % 1017,3 hPa 0,0 l/m 1,00 h 0,00 h 2,4 UV-I 790 W/m 11,4 km/h (2 Bft)
04.05.2013 14:00 19,7 C 20,4 C 52 % 1017,0 hPa 0,0 l/m 1,00 h 0,00 h 3,5 UV-I 773 W/m 11,8 km/h (2 Bft)
04.05.2013 15:00 20,5 C 20,7 C 50 % 1016,7 hPa 0,0 l/m 1,00 h 0,00 h 2,9 UV-I 704 W/m 11,7 km/h (2 Bft)
04.05.2013 16:00 20,8 C 21,2 C 49 % 1016,7 hPa 0,0 l/m 1,00 h 0,00 h 2,0 UV-I 599 W/m 11,7 km/h (2 Bft)
04.05.2013 17:00 20,5 C 19,4 C 48 % 1016,8 hPa 0,0 l/m 1,00 h 0,00 h 1,1 UV-I 472 W/m 12,5 km/h (3 Bft)
04.05.2013 18:00 19,6 C 18,2 C 50 % 1017,1 hPa 0,0 l/m 0,43 h 0,00 h 0,5 UV-I 206 W/m 11,7 km/h (2 Bft)
04.05.2013 19:00 18,2 C 16,8 C 55 % 1017,6 hPa 0,0 l/m 0,00 h 0,00 h 0,0 UV-I 52 W/m 8,8 km/h (2 Bft)
04.05.2013 20:00 16,8 C 14,8 C 60 % 1018,4 hPa 0,0 l/m 0,00 h 0,00 h 0,0 UV-I 20 W/m 7,5 km/h (2 Bft)
04.05.2013 21:00 14,9 C 12,7 C 64 % 1019,4 hPa 0,0 l/m 0,00 h 0,00 h 0,0 UV-I 5 W/m 6,3 km/h (2 Bft)
04.05.2013 22:00 13,3 C 11,2 C 68 % 1020,3 hPa 0,0 l/m 0,00 h 0,00 h 0,0 UV-I 0 W/m 1,1 km/h (1 Bft)
04.05.2013 23:00 12,0 C 9,9 C 72 % 1020,8 hPa 0,0 l/m 0,00 h 0,00 h 0,0 UV-I 0 W/m 0,9 km/h (0 Bft)
05.05.2013 00:00 10,8 C 9,0 C 77 % 1021,2 hPa 0,0 l/m 0,00 h 0,00 h 0,0 UV-I 0 W/m 2,2 km/h (1 Bft)
05.05.2013 01:00 10,2 C 8,6 C 79 % 1021,4 hPa 0,0 l/m 0,00 h 0,00 h 0,0 UV-I 0 W/m 0,3 km/h (0 Bft)
05.05.2013 02:00 9,5 C 7,6 C 81 % 1021,4 hPa 0,0 l/m 0,00 h 0,00 h 0,0 UV-I 0 W/m 0,2 km/h (0 Bft)
05.05.2013 03:00 8,7 C 6,4 C 83 % 1021,5 hPa 0,0 l/m 0,00 h 0,00 h 0,0 UV-I 0 W/m 0,0 km/h (0 Bft)
05.05.2013 04:00 7,9 C 6,3 C 87 % 1021,3 hPa 0,0 l/m 0,00 h 0,00 h 0,0 UV-I 0 W/m 0,3 km/h (0 Bft)
05.05.2013 05:00 7,5 C 5,4 C 87 % 1021,8 hPa 0,0 l/m 0,00 h 0,00 h 0,0 UV-I 5 W/m 0,0 km/h (0 Bft)
05.05.2013 06:00 6,9 C 5,4 C 89 % 1022,1 hPa 0,0 l/m 0,00 h 0,00 h 0,0 UV-I 16 W/m 0,0 km/h (0 Bft)
05.05.2013 07:00 7,3 C 7,3 C 92 % 1022,5 hPa 0,0 l/m 0,00 h 0,00 h 0,0 UV-I 41 W/m 0,3 km/h (0 Bft)
05.05.2013 08:00 9,6 C 9,8 C 89 % 1022,7 hPa 0,0 l/m 0,73 h 0,00 h 0,0 UV-I 250 W/m 2,0 km/h (1 Bft)
05.05.2013 09:00 13,5 C 15,6 C 76 % 1023,0 hPa 0,0 l/m 1,00 h 0,00 h 0,9 UV-I 459 W/m 4,0 km/h (1 Bft)
05.05.2013 10:00 16,2 C 22,9 C 65 % 1023,0 hPa 0,0 l/m 1,00 h 0,00 h 2,0 UV-I 603 W/m 9,4 km/h (2 Bft)
05.05.2013 11:00 17,4 C 22,2 C 58 % 1023,0 hPa 0,0 l/m 1,00 h 0,00 h 3,0 UV-I 729 W/m 9,6 km/h (2 Bft)
05.05.2013 12:00 18,3 C 25,8 C 52 % 1022,8 hPa 0,0 l/m 1,00 h 0,00 h 3,6 UV-I 799 W/m 10,5 km/h (2 Bft)
05.05.2013 13:00 19,2 C 24,7 C 47 % 1022,7 hPa 0,0 l/m 1,00 h 0,00 h 2,6 UV-I 812 W/m 10,1 km/h (2 Bft)
05.05.2013 14:00 20,1 C 20,4 C 45 % 1022,3 hPa 0,0 l/m 1,00 h 0,00 h 4,2 UV-I 795 W/m 8,1 km/h (2 Bft)
05.05.2013 15:00 20,6 C 20,5 C 43 % 1022,0 hPa 0,0 l/m 1,00 h 0,00 h 3,3 UV-I 715 W/m 8,6 km/h (2 Bft)
05.05.2013 16:00 20,8 C 21,2 C 44 % 1021,5 hPa 0,0 l/m 1,00 h 0,00 h 2,3 UV-I 608 W/m 7,6 km/h (2 Bft)
05.05.2013 17:00 20,8 C 19,7 C 46 % 1021,3 hPa 0,0 l/m 1,00 h 0,00 h 1,3 UV-I 477 W/m 4,3 km/h (1 Bft)
05.05.2013 18:00 20,0 C 18,7 C 47 % 1021,1 hPa 0,0 l/m 0,27 h 0,00 h 0,5 UV-I 178 W/m 1,3 km/h (1 Bft)
05.05.2013 19:00 19,7 C 18,1 C 48 % 1021,0 hPa 0,0 l/m 0,00 h 0,00 h 0,0 UV-I 65 W/m 0,9 km/h (0 Bft)
05.05.2013 20:00 18,7 C 16,8 C 51 % 1021,0 hPa 0,0 l/m 0,00 h 0,00 h 0,0 UV-I 24 W/m 1,0 km/h (0 Bft)
05.05.2013 21:00 16,1 C 12,8 C 60 % 1021,3 hPa 0,0 l/m 0,00 h 0,00 h 0,0 UV-I 5 W/m 0,0 km/h (0 Bft)
05.05.2013 22:00 14,5 C 11,0 C 65 % 1021,5 hPa 0,0 l/m 0,00 h 0,00 h 0,0 UV-I 0 W/m 0,0 km/h (0 Bft)
05.05.2013 23:00 12,8 C 9,8 C 71 % 1021,8 hPa 0,0 l/m 0,00 h 0,00 h 0,0 UV-I 0 W/m 0,0 km/h (0 Bft)
Min-Datum _ 30.04.13 30.04.13 05.05.13 29.04.13 - - - - - 29.04.13
_ Min-Zeit 06:50 05:54 15:24 04:32 - - - - - 00:00
Minimum _ 2,1 C 0,7 C 41 % 1013,9 hPa - - - - - 0,0 km/h (0 Bft)
Max-Datum _ 04.05.13 05.05.13 30.04.13 01.05.13 29.04.13 29.04.13 29.04.13 01.05.13 29.04.13 29.04.13
_ Max-Zeit 16:30 12:32 08:24 02:02 00:00 09:40 13:04 13:40 14:46 12:08
Maximum _ 21,4 C 26,8 C 98 % 1023,7 hPa 0,0 l/m 0,03 h 0,03 h 4,6 UV-I 1072 W/m 38,6 km/h
W (5 Bft)
Durchschnitt _ 13,0 C 12,7 C 69 % 1019,1 hPa #0,0 l/m #39:31 h #56 min. 1,7 UV-I 300 W/m 5,4 km/h (1 Bft)
© 2013 W. Hausmann